sensor_id;sensor_type;location;lat;lon;timestamp;pressure;altitude;pressure_sealevel;temperature;humidity
15314;BME280;7757;52.626;4.746;2023-04-07T00:01:08;101299.97;;;16.02;57.29
15314;BME280;7757;52.626;4.746;2023-04-07T00:03:54;101285.63;;;16.02;56.79
15314;BME280;7757;52.626;4.746;2023-04-07T00:06:40;101297.28;;;16.02;56.76
15314;BME280;7757;52.626;4.746;2023-04-07T00:09:26;101292.06;;;16.01;57.24
15314;BME280;7757;52.626;4.746;2023-04-07T00:12:11;101293.72;;;16.02;57.12
15314;BME280;7757;52.626;4.746;2023-04-07T00:14:57;101293.13;;;16.00;56.35
15314;BME280;7757;52.626;4.746;2023-04-07T00:17:42;101291.47;;;15.99;56.61
15314;BME280;7757;52.626;4.746;2023-04-07T00:20:29;101288.34;;;16.02;57.31
15314;BME280;7757;52.626;4.746;2023-04-07T00:23:14;101290.19;;;16.01;57.31
15314;BME280;7757;52.626;4.746;2023-04-07T00:26:00;101288.75;;;15.99;56.52
15314;BME280;7757;52.626;4.746;2023-04-07T00:28:45;101282.75;;;15.97;57.14
15314;BME280;7757;52.626;4.746;2023-04-07T00:31:30;101289.78;;;15.98;56.40
15314;BME280;7757;52.626;4.746;2023-04-07T00:34:15;101287.94;;;15.98;56.96
15314;BME280;7757;52.626;4.746;2023-04-07T00:37:02;101292.28;;;15.99;56.66
15314;BME280;7757;52.626;4.746;2023-04-07T00:39:49;101296.63;;;16.00;57.20
15314;BME280;7757;52.626;4.746;2023-04-07T00:42:34;101296.84;;;15.99;56.57
15314;BME280;7757;52.626;4.746;2023-04-07T00:45:20;101298.94;;;15.97;57.18
15314;BME280;7757;52.626;4.746;2023-04-07T00:48:05;101302.25;;;15.99;57.14
15314;BME280;7757;52.626;4.746;2023-04-07T00:50:51;101291.03;;;15.95;57.22
15314;BME280;7757;52.626;4.746;2023-04-07T00:53:38;101288.75;;;15.92;56.94
15314;BME280;7757;52.626;4.746;2023-04-07T00:56:23;101289.59;;;15.93;56.86
15314;BME280;7757;52.626;4.746;2023-04-07T00:59:08;101303.91;;;16.00;57.33
15314;BME280;7757;52.626;4.746;2023-04-07T01:01:58;101291.66;;;15.97;56.92
15314;BME280;7757;52.626;4.746;2023-04-07T01:04:49;101297.03;;;15.97;57.15
15314;BME280;7757;52.626;4.746;2023-04-07T01:07:45;101300.56;;;15.98;57.46
15314;BME280;7757;52.626;4.746;2023-04-07T01:10:36;101297.03;;;15.97;56.97
15314;BME280;7757;52.626;4.746;2023-04-07T01:13:29;101297.03;;;15.97;57.50
15314;BME280;7757;52.626;4.746;2023-04-07T01:16:23;101280.28;;;15.82;57.32
15314;BME280;7757;52.626;4.746;2023-04-07T01:19:15;101308.06;;;15.96;56.95
15314;BME280;7757;52.626;4.746;2023-04-07T01:22:01;101301.63;;;15.97;56.95
15314;BME280;7757;52.626;4.746;2023-04-07T01:28:14;101291.47;;;15.86;57.37
15314;BME280;7757;52.626;4.746;2023-04-07T01:31:07;101304.75;;;15.94;57.15
15314;BME280;7757;52.626;4.746;2023-04-07T01:33:54;101299.78;;;15.91;56.79
15314;BME280;7757;52.626;4.746;2023-04-07T01:36:40;101302.06;;;15.94;57.20
15314;BME280;7757;52.626;4.746;2023-04-07T01:39:26;101305.38;;;15.96;57.33
15314;BME280;7757;52.626;4.746;2023-04-07T01:42:12;101303.69;;;15.95;56.51
15314;BME280;7757;52.626;4.746;2023-04-07T01:44:59;101307.44;;;15.94;57.28
15314;BME280;7757;52.626;4.746;2023-04-07T01:47:48;101301.84;;;15.95;56.73
15314;BME280;7757;52.626;4.746;2023-04-07T01:50:35;101304.34;;;15.90;57.10
15314;BME280;7757;52.626;4.746;2023-04-07T01:53:22;101310.34;;;15.92;57.07
15314;BME280;7757;52.626;4.746;2023-04-07T01:56:07;101307.44;;;15.94;57.21
15314;BME280;7757;52.626;4.746;2023-04-07T01:58:54;101303.91;;;15.93;57.47
15314;BME280;7757;52.626;4.746;2023-04-07T02:01:39;101307.88;;;15.91;57.06
15314;BME280;7757;52.626;4.746;2023-04-07T02:04:30;101310.94;;;15.94;57.48
15314;BME280;7757;52.626;4.746;2023-04-07T02:07:19;101309.31;;;15.93;56.83
15314;BME280;7757;52.626;4.746;2023-04-07T02:10:11;101319.03;;;15.94;57.25
15314;BME280;7757;52.626;4.746;2023-04-07T02:12:57;101318.25;;;15.94;56.41
15314;BME280;7757;52.626;4.746;2023-04-07T02:15:44;101312.84;;;15.94;57.26
15314;BME280;7757;52.626;4.746;2023-04-07T02:18:30;101320.09;;;15.93;57.20
15314;BME280;7757;52.626;4.746;2023-04-07T02:21:18;101311.38;;;15.91;56.77
15314;BME280;7757;52.626;4.746;2023-04-07T02:24:05;101314.91;;;15.92;57.00
15314;BME280;7757;52.626;4.746;2023-04-07T02:26:50;101324.84;;;15.91;57.39
15314;BME280;7757;52.626;4.746;2023-04-07T02:29:36;101316.75;;;15.91;57.58
15314;BME280;7757;52.626;4.746;2023-04-07T02:32:21;101317.59;;;15.92;57.54
15314;BME280;7757;52.626;4.746;2023-04-07T02:35:07;101317.00;;;15.90;56.82
15314;BME280;7757;52.626;4.746;2023-04-07T02:37:53;101313.25;;;15.84;57.63
15314;BME280;7757;52.626;4.746;2023-04-07T02:40:39;101323.00;;;15.92;57.74
15314;BME280;7757;52.626;4.746;2023-04-07T02:43:24;101314.28;;;15.90;57.55
15314;BME280;7757;52.626;4.746;2023-04-07T02:46:09;101318.84;;;15.89;57.24
15314;BME280;7757;52.626;4.746;2023-04-07T02:48:55;101318.00;;;15.89;57.50
15314;BME280;7757;52.626;4.746;2023-04-07T02:51:40;101320.94;;;15.87;57.42
15314;BME280;7757;52.626;4.746;2023-04-07T02:54:27;101323.22;;;15.90;57.18
15314;BME280;7757;52.626;4.746;2023-04-07T02:57:12;101318.00;;;15.89;57.42
15314;BME280;7757;52.626;4.746;2023-04-07T02:59:58;101316.38;;;15.88;57.41
15314;BME280;7757;52.626;4.746;2023-04-07T03:02:44;101326.09;;;15.89;56.72
15314;BME280;7757;52.626;4.746;2023-04-07T03:05:29;101322.59;;;15.88;57.65
15314;BME280;7757;52.626;4.746;2023-04-07T03:08:14;101320.53;;;15.84;57.08
15314;BME280;7757;52.626;4.746;2023-04-07T03:11:01;101321.78;;;15.88;57.42
15314;BME280;7757;52.626;4.746;2023-04-07T03:13:46;101315.34;;;15.82;57.85
15314;BME280;7757;52.626;4.746;2023-04-07T03:16:32;101319.28;;;15.86;57.40
15314;BME280;7757;52.626;4.746;2023-04-07T03:19:17;101323.63;;;15.87;57.53
15314;BME280;7757;52.626;4.746;2023-04-07T03:22:02;101318.66;;;15.84;56.89
15314;BME280;7757;52.626;4.746;2023-04-07T03:24:48;101323.03;;;15.85;57.25
15314;BME280;7757;52.626;4.746;2023-04-07T03:27:34;101323.03;;;15.85;57.90
15314;BME280;7757;52.626;4.746;2023-04-07T03:30:20;101313.69;;;15.81;58.06
15314;BME280;7757;52.626;4.746;2023-04-07T03:33:05;101312.22;;;15.79;57.13
15314;BME280;7757;52.626;4.746;2023-04-07T03:35:50;101317.81;;;15.84;57.28
15314;BME280;7757;52.626;4.746;2023-04-07T03:38:36;101317.81;;;15.84;57.78
15314;BME280;7757;52.626;4.746;2023-04-07T03:41:21;101328.59;;;15.84;57.40
15314;BME280;7757;52.626;4.746;2023-04-07T03:44:08;101320.53;;;15.84;57.12
15314;BME280;7757;52.626;4.746;2023-04-07T03:46:53;101315.53;;;15.81;57.80
15314;BME280;7757;52.626;4.746;2023-04-07T03:49:39;101323.22;;;15.84;57.94
15314;BME280;7757;52.626;4.746;2023-04-07T03:52:24;101316.19;;;15.76;57.15
15314;BME280;7757;52.626;4.746;2023-04-07T03:55:09;101328.84;;;15.82;57.26
15314;BME280;7757;52.626;4.746;2023-04-07T03:57:55;101325.50;;;15.80;57.93
15314;BME280;7757;52.626;4.746;2023-04-07T04:00:41;101326.56;;;15.79;57.41
15314;BME280;7757;52.626;4.746;2023-04-07T04:03:27;101333.41;;;15.82;57.23
15314;BME280;7757;52.626;4.746;2023-04-07T04:06:12;101336.50;;;15.79;58.06
15314;BME280;7757;52.626;4.746;2023-04-07T04:08:57;101337.34;;;15.79;57.46
15314;BME280;7757;52.626;4.746;2023-04-07T04:11:43;101338.78;;;15.82;57.81
15314;BME280;7757;52.626;4.746;2023-04-07T04:14:28;101330.69;;;15.82;58.07
15314;BME280;7757;52.626;4.746;2023-04-07T04:17:15;101333.16;;;15.77;57.52
15314;BME280;7757;52.626;4.746;2023-04-07T04:20:00;101342.75;;;15.79;57.42
15314;BME280;7757;52.626;4.746;2023-04-07T04:22:45;101333.59;;;15.80;57.29
15314;BME280;7757;52.626;4.746;2023-04-07T04:25:31;101335.44;;;15.80;56.99
15314;BME280;7757;52.626;4.746;2023-04-07T04:28:16;101334.66;;;15.79;57.21
15314;BME280;7757;52.626;4.746;2023-04-07T04:31:02;101334.00;;;15.77;57.99
15314;BME280;7757;52.626;4.746;2023-04-07T04:33:49;101336.91;;;15.76;57.88
15314;BME280;7757;52.626;4.746;2023-04-07T04:36:35;101342.94;;;15.78;57.42
15314;BME280;7757;52.626;4.746;2023-04-07T04:39:20;101340.22;;;15.78;57.75
15314;BME280;7757;52.626;4.746;2023-04-07T04:42:06;101342.31;;;15.76;58.02
15314;BME280;7757;52.626;4.746;2023-04-07T04:44:51;101344.78;;;15.77;58.03
15314;BME280;7757;52.626;4.746;2023-04-07T04:47:37;101339.41;;;15.77;57.18
15314;BME280;7757;52.626;4.746;2023-04-07T04:50:24;101350.19;;;15.77;57.91
15314;BME280;7757;52.626;4.746;2023-04-07T04:53:09;101353.94;;;15.76;58.04
15314;BME280;7757;52.626;4.746;2023-04-07T04:55:55;101357.25;;;15.78;58.12
15314;BME280;7757;52.626;4.746;2023-04-07T04:58:40;101362.03;;;15.76;58.05
15314;BME280;7757;52.626;4.746;2023-04-07T05:01:29;101354.13;;;15.68;56.83
15314;BME280;7757;52.626;4.746;2023-04-07T05:04:14;101364.72;;;15.76;57.20
15314;BME280;7757;52.626;4.746;2023-04-07T05:07:01;101370.53;;;15.73;57.67
15314;BME280;7757;52.626;4.746;2023-04-07T05:09:46;101367.41;;;15.76;57.38
15314;BME280;7757;52.626;4.746;2023-04-07T05:12:31;101379.22;;;15.75;57.15
15314;BME280;7757;52.626;4.746;2023-04-07T05:15:17;101371.34;;;15.74;57.18
15314;BME280;7757;52.626;4.746;2023-04-07T05:18:02;101381.94;;;15.75;57.48
15314;BME280;7757;52.626;4.746;2023-04-07T05:20:48;101375.69;;;15.75;57.79
15314;BME280;7757;52.626;4.746;2023-04-07T05:23:35;101374.03;;;15.74;57.58
15314;BME280;7757;52.626;4.746;2023-04-07T05:26:20;101369.88;;;15.71;57.77
15314;BME280;7757;52.626;4.746;2023-04-07T05:29:06;101377.38;;;15.76;57.67
15314;BME280;7757;52.626;4.746;2023-04-07T05:31:51;101377.56;;;15.74;57.80
15314;BME280;7757;52.626;4.746;2023-04-07T05:34:36;101382.97;;;15.74;57.47
15314;BME280;7757;52.626;4.746;2023-04-07T05:37:22;101383.78;;;15.75;57.82
15314;BME280;7757;52.626;4.746;2023-04-07T05:40:10;101370.28;;;15.68;57.57
15314;BME280;7757;52.626;4.746;2023-04-07T05:42:55;101392.09;;;15.73;57.89
15314;BME280;7757;52.626;4.746;2023-04-07T05:45:40;101391.03;;;15.74;57.70
15314;BME280;7757;52.626;4.746;2023-04-07T05:48:26;101387.13;;;15.70;57.02
15314;BME280;7757;52.626;4.746;2023-04-07T05:51:13;101387.31;;;15.75;57.71
15314;BME280;7757;52.626;4.746;2023-04-07T05:54:00;101392.53;;;15.70;57.88
15314;BME280;7757;52.626;4.746;2023-04-07T05:56:47;101396.66;;;15.73;57.52
15314;BME280;7757;52.626;4.746;2023-04-07T05:59:33;101397.28;;;15.75;58.15
15314;BME280;7757;52.626;4.746;2023-04-07T06:02:18;101393.97;;;15.73;56.81
15314;BME280;7757;52.626;4.746;2023-04-07T06:05:04;101409.31;;;15.79;56.78
15314;BME280;7757;52.626;4.746;2023-04-07T06:07:49;101408.91;;;15.75;57.73
15314;BME280;7757;52.626;4.746;2023-04-07T06:10:35;101407.88;;;15.70;57.64
15314;BME280;7757;52.626;4.746;2023-04-07T06:13:22;101410.75;;;15.68;57.67
15314;BME280;7757;52.626;4.746;2023-04-07T06:16:10;101423.81;;;15.71;57.56
15314;BME280;7757;52.626;4.746;2023-04-07T06:18:55;101420.94;;;15.73;57.82
15314;BME280;7757;52.626;4.746;2023-04-07T06:21:40;101427.34;;;15.72;58.46
15314;BME280;7757;52.626;4.746;2023-04-07T06:24:26;101431.75;;;15.79;57.44
15314;BME280;7757;52.626;4.746;2023-04-07T06:27:11;101431.31;;;15.82;57.82
15314;BME280;7757;52.626;4.746;2023-04-07T06:29:58;101436.91;;;15.81;58.16
15314;BME280;7757;52.626;4.746;2023-04-07T06:32:43;101440.44;;;15.81;57.37
15314;BME280;7757;52.626;4.746;2023-04-07T06:35:29;101440.44;;;15.81;57.67
15314;BME280;7757;52.626;4.746;2023-04-07T06:38:14;101437.75;;;15.81;58.03
15314;BME280;7757;52.626;4.746;2023-04-07T06:40:59;101426.09;;;15.74;57.93
15314;BME280;7757;52.626;4.746;2023-04-07T06:43:46;101442.53;;;15.79;58.10
15314;BME280;7757;52.626;4.746;2023-04-07T06:46:33;101446.69;;;15.82;57.59
15314;BME280;7757;52.626;4.746;2023-04-07T06:49:18;101443.13;;;15.81;57.79
15314;BME280;7757;52.626;4.746;2023-04-07T06:52:04;101441.28;;;15.82;57.12
15314;BME280;7757;52.626;4.746;2023-04-07T06:54:49;101451.88;;;15.90;57.44
15314;BME280;7757;52.626;4.746;2023-04-07T06:57:34;101456.00;;;15.86;57.31
15314;BME280;7757;52.626;4.746;2023-04-07T07:00:20;101458.94;;;15.91;57.21
15314;BME280;7757;52.626;4.746;2023-04-07T07:03:07;101452.91;;;15.89;57.12
15314;BME280;7757;52.626;4.746;2023-04-07T07:05:53;101456.63;;;15.94;57.28
15314;BME280;7757;52.626;4.746;2023-04-07T07:08:39;101461.22;;;15.94;56.95
15314;BME280;7757;52.626;4.746;2023-04-07T07:11:24;101460.38;;;15.93;57.82
15314;BME280;7757;52.626;4.746;2023-04-07T07:14:10;101458.91;;;15.97;57.03
15314;BME280;7757;52.626;4.746;2023-04-07T07:16:55;101461.63;;;15.97;57.06
15314;BME280;7757;52.626;4.746;2023-04-07T07:19:42;101467.66;;;15.99;56.94
15314;BME280;7757;52.626;4.746;2023-04-07T07:22:27;101475.75;;;15.99;57.49
15314;BME280;7757;52.626;4.746;2023-04-07T07:25:13;101465.56;;;15.95;56.84
15314;BME280;7757;52.626;4.746;2023-04-07T07:27:58;101474.69;;;16.00;57.26
15314;BME280;7757;52.626;4.746;2023-04-07T07:30:44;101471.19;;;16.00;57.08
15314;BME280;7757;52.626;4.746;2023-04-07T07:33:29;101480.94;;;16.01;57.43
15314;BME280;7757;52.626;4.746;2023-04-07T07:36:16;101478.22;;;16.01;56.89
15314;BME280;7757;52.626;4.746;2023-04-07T07:39:01;101481.16;;;16.06;57.38
15314;BME280;7757;52.626;4.746;2023-04-07T07:41:47;101495.47;;;16.06;57.32
15314;BME280;7757;52.626;4.746;2023-04-07T07:44:33;101488.19;;;16.07;56.41
15314;BME280;7757;52.626;4.746;2023-04-07T07:47:19;101491.53;;;16.09;56.40
15314;BME280;7757;52.626;4.746;2023-04-07T07:50:04;101504.81;;;16.10;57.11
15314;BME280;7757;52.626;4.746;2023-04-07T07:52:51;101500.69;;;16.14;57.02
15314;BME280;7757;52.626;4.746;2023-04-07T07:55:37;101504.19;;;16.15;56.18
15314;BME280;7757;52.626;4.746;2023-04-07T07:58:22;101500.88;;;16.13;56.65
15314;BME280;7757;52.626;4.746;2023-04-07T08:01:07;101513.13;;;16.15;56.57
15314;BME280;7757;52.626;4.746;2023-04-07T08:03:53;101504.00;;;16.16;56.33
15314;BME280;7757;52.626;4.746;2023-04-07T08:06:38;101502.97;;;16.11;56.49
15314;BME280;7757;52.626;4.746;2023-04-07T08:09:26;101509.59;;;16.15;56.05
15314;BME280;7757;52.626;4.746;2023-04-07T08:12:11;101514.19;;;16.14;57.03
15314;BME280;7757;52.626;4.746;2023-04-07T08:14:57;101524.13;;;16.14;56.54
15314;BME280;7757;52.626;4.746;2023-04-07T08:17:42;101518.75;;;16.21;56.80
15314;BME280;7757;52.626;4.746;2023-04-07T08:20:27;101517.50;;;16.23;56.78
15314;BME280;7757;52.626;4.746;2023-04-07T08:23:12;101512.16;;;16.56;57.14
15314;BME280;7757;52.626;4.746;2023-04-07T08:25:59;101525.22;;;16.65;56.89
15314;BME280;7757;52.626;4.746;2023-04-07T08:28:45;101536.84;;;16.66;56.38
15314;BME280;7757;52.626;4.746;2023-04-07T08:31:30;101523.56;;;16.58;56.82
15314;BME280;7757;52.626;4.746;2023-04-07T08:34:15;101524.81;;;16.55;56.38
15314;BME280;7757;52.626;4.746;2023-04-07T08:37:03;101537.88;;;16.52;56.36
15314;BME280;7757;52.626;4.746;2023-04-07T08:39:49;101534.31;;;16.45;55.87
15314;BME280;7757;52.626;4.746;2023-04-07T08:42:39;101536.00;;;16.46;56.43
15314;BME280;7757;52.626;4.746;2023-04-07T08:45:25;101539.72;;;16.25;56.86
15314;BME280;7757;52.626;4.746;2023-04-07T08:48:15;101552.78;;;16.22;56.79
15314;BME280;7757;52.626;4.746;2023-04-07T08:51:03;101549.88;;;16.23;57.13
15314;BME280;7757;52.626;4.746;2023-04-07T08:53:50;101558.19;;;16.22;56.79
15314;BME280;7757;52.626;4.746;2023-04-07T08:56:37;101559.25;;;16.21;57.25
15314;BME280;7757;52.626;4.746;2023-04-07T08:59:25;101556.94;;;16.24;56.68
15314;BME280;7757;52.626;4.746;2023-04-07T09:02:13;101560.69;;;16.23;56.74
15314;BME280;7757;52.626;4.746;2023-04-07T09:04:59;101555.69;;;16.13;56.56
15314;BME280;7757;52.626;4.746;2023-04-07T09:07:45;101559.66;;;16.17;57.04
15314;BME280;7757;52.626;4.746;2023-04-07T09:10:30;101572.72;;;16.21;56.87
15314;BME280;7757;52.626;4.746;2023-04-07T09:13:16;101570.22;;;16.06;57.20
15314;BME280;7757;52.626;4.746;2023-04-07T09:16:03;101564.63;;;16.14;57.08
15314;BME280;7757;52.626;4.746;2023-04-07T09:18:48;101568.34;;;16.13;56.77
15314;BME280;7757;52.626;4.746;2023-04-07T09:21:47;101560.47;;;16.11;56.84
15314;BME280;7757;52.626;4.746;2023-04-07T09:24:33;101581.25;;;16.17;56.30
15314;BME280;7757;52.626;4.746;2023-04-07T09:27:19;101582.06;;;16.11;56.63
15314;BME280;7757;52.626;4.746;2023-04-07T09:30:11;101577.88;;;16.15;57.05
15314;BME280;7757;52.626;4.746;2023-04-07T09:33:00;101578.94;;;16.14;56.81
15314;BME280;7757;52.626;4.746;2023-04-07T09:35:50;101579.94;;;16.07;56.98
15314;BME280;7757;52.626;4.746;2023-04-07T09:38:37;101580.81;;;16.21;56.54
15314;BME280;7757;52.626;4.746;2023-04-07T09:41:22;101582.91;;;16.25;56.81
15314;BME280;7757;52.626;4.746;2023-04-07T09:44:09;101580.00;;;16.33;56.01
15314;BME280;7757;52.626;4.746;2023-04-07T09:46:56;101593.50;;;16.33;56.09
15314;BME280;7757;52.626;4.746;2023-04-07T09:49:50;101583.94;;;16.31;56.16
15314;BME280;7757;52.626;4.746;2023-04-07T09:52:50;101589.75;;;16.28;56.88
15314;BME280;7757;52.626;4.746;2023-04-07T09:55:36;101587.06;;;16.28;56.98
15314;BME280;7757;52.626;4.746;2023-04-07T09:58:23;101589.94;;;16.19;57.23
15314;BME280;7757;52.626;4.746;2023-04-07T10:01:09;101592.66;;;16.19;57.34
15314;BME280;7757;52.626;4.746;2023-04-07T10:03:55;101592.44;;;16.21;57.18
15314;BME280;7757;52.626;4.746;2023-04-07T10:06:42;101593.66;;;16.12;57.06
15314;BME280;7757;52.626;4.746;2023-04-07T10:09:31;101596.16;;;16.13;57.43
15314;BME280;7757;52.626;4.746;2023-04-07T10:12:17;101586.41;;;16.12;57.28
15314;BME280;7757;52.626;4.746;2023-04-07T10:15:03;101594.72;;;16.17;57.12
15314;BME280;7757;52.626;4.746;2023-04-07T10:17:49;101602.59;;;16.19;57.11
15314;BME280;7757;52.626;4.746;2023-04-07T10:20:38;101603.44;;;16.19;57.09
15314;BME280;7757;52.626;4.746;2023-04-07T10:23:33;101605.94;;;16.14;56.81
15314;BME280;7757;52.626;4.746;2023-04-07T10:26:25;101599.25;;;16.10;57.19
15314;BME280;7757;52.626;4.746;2023-04-07T10:29:12;101594.31;;;16.14;57.06
15314;BME280;7757;52.626;4.746;2023-04-07T10:32:00;101607.38;;;16.10;57.27
15314;BME280;7757;52.626;4.746;2023-04-07T10:34:56;101594.50;;;16.06;57.37
15314;BME280;7757;52.626;4.746;2023-04-07T10:38:10;101614.44;;;16.18;57.15
15314;BME280;7757;52.626;4.746;2023-04-07T10:40:57;101617.00;;;16.52;57.05
15314;BME280;7757;52.626;4.746;2023-04-07T10:43:43;101606.44;;;16.57;56.20
15314;BME280;7757;52.626;4.746;2023-04-07T10:47:01;101615.59;;;16.63;56.66
15314;BME280;7757;52.626;4.746;2023-04-07T10:50:15;101620.97;;;16.50;56.09
15314;BME280;7757;52.626;4.746;2023-04-07T10:53:06;101607.22;;;16.32;56.23
15314;BME280;7757;52.626;4.746;2023-04-07T10:55:53;101623.44;;;16.51;56.19
15314;BME280;7757;52.626;4.746;2023-04-07T10:58:40;101612.22;;;16.48;55.94
15314;BME280;7757;52.626;4.746;2023-04-07T11:01:26;101632.56;;;16.44;56.60
15314;BME280;7757;52.626;4.746;2023-04-07T11:04:11;101635.91;;;16.46;56.18
15314;BME280;7757;52.626;4.746;2023-04-07T11:06:57;101636.72;;;16.40;56.67
15314;BME280;7757;52.626;4.746;2023-04-07T11:09:42;101635.66;;;16.34;56.24
15314;BME280;7757;52.626;4.746;2023-04-07T11:12:28;101636.69;;;16.33;56.83
15314;BME280;7757;52.626;4.746;2023-04-07T11:15:19;101642.94;;;16.40;56.51
15314;BME280;7757;52.626;4.746;2023-04-07T11:18:13;101645.22;;;16.37;56.86
15314;BME280;7757;52.626;4.746;2023-04-07T11:20:59;101629.88;;;16.44;56.77
15314;BME280;7757;52.626;4.746;2023-04-07T11:23:46;101642.72;;;16.42;56.81
15314;BME280;7757;52.626;4.746;2023-04-07T11:26:36;101644.63;;;16.41;55.98
15314;BME280;7757;52.626;4.746;2023-04-07T11:29:26;101647.31;;;16.48;55.63
15314;BME280;7757;52.626;4.746;2023-04-07T11:32:13;101649.63;;;16.44;55.97
15314;BME280;7757;52.626;4.746;2023-04-07T11:34:59;101649.81;;;16.43;56.81
15314;BME280;7757;52.626;4.746;2023-04-07T11:37:45;101645.84;;;16.45;56.54
15314;BME280;7757;52.626;4.746;2023-04-07T11:40:31;101642.31;;;16.32;56.04
15314;BME280;7757;52.626;4.746;2023-04-07T11:43:18;101657.50;;;16.46;55.75
15314;BME280;7757;52.626;4.746;2023-04-07T11:46:07;101658.94;;;16.48;55.78
15314;BME280;7757;52.626;4.746;2023-04-07T11:49:07;101653.97;;;16.45;56.55
15314;BME280;7757;52.626;4.746;2023-04-07T11:52:00;101645.88;;;16.52;55.89
15314;BME280;7757;52.626;4.746;2023-04-07T11:54:46;101653.59;;;16.55;55.95
15314;BME280;7757;52.626;4.746;2023-04-07T11:57:33;101658.53;;;16.51;56.06
15314;BME280;7757;52.626;4.746;2023-04-07T12:00:18;101659.16;;;16.47;56.11
15314;BME280;7757;52.626;4.746;2023-04-07T12:03:10;101660.88;;;16.54;55.56
15314;BME280;7757;52.626;4.746;2023-04-07T12:05:58;101659.78;;;16.49;55.98
15314;BME280;7757;52.626;4.746;2023-04-07T12:08:43;101664.16;;;16.50;56.17
15314;BME280;7757;52.626;4.746;2023-04-07T12:11:29;101667.47;;;16.52;55.38
15314;BME280;7757;52.626;4.746;2023-04-07T12:14:14;101672.03;;;16.45;55.77
15314;BME280;7757;52.626;4.746;2023-04-07T12:17:00;101679.94;;;16.46;56.37
15314;BME280;7757;52.626;4.746;2023-04-07T12:19:46;101680.31;;;16.37;55.84
15314;BME280;7757;52.626;4.746;2023-04-07T12:22:33;101692.38;;;16.41;56.12
15314;BME280;7757;52.626;4.746;2023-04-07T12:25:18;101680.75;;;16.40;55.88
15314;BME280;7757;52.626;4.746;2023-04-07T12:28:04;101689.06;;;16.45;56.67
15314;BME280;7757;52.626;4.746;2023-04-07T12:30:50;101686.59;;;16.44;56.33
15314;BME280;7757;52.626;4.746;2023-04-07T12:33:35;101682.44;;;16.41;55.95
15314;BME280;7757;52.626;4.746;2023-04-07T12:36:21;101677.19;;;16.33;55.81
15314;BME280;7757;52.626;4.746;2023-04-07T12:39:08;101696.31;;;16.45;56.36
15314;BME280;7757;52.626;4.746;2023-04-07T12:41:53;101685.13;;;16.48;55.90
15314;BME280;7757;52.626;4.746;2023-04-07T12:44:38;101698.28;;;16.57;56.09
15314;BME280;7757;52.626;4.746;2023-04-07T12:47:24;101699.56;;;16.68;55.27
15314;BME280;7757;52.626;4.746;2023-04-07T12:50:10;101702.25;;;16.74;55.17
15314;BME280;7757;52.626;4.746;2023-04-07T12:52:56;101698.09;;;16.79;54.85
15314;BME280;7757;52.626;4.746;2023-04-07T12:55:43;101704.75;;;16.76;55.16
15314;BME280;7757;52.626;4.746;2023-04-07T12:58:28;101686.88;;;16.75;55.07
15314;BME280;7757;52.626;4.746;2023-04-07T13:01:14;101703.13;;;16.88;54.68
15314;BME280;7757;52.626;4.746;2023-04-07T13:03:59;101701.25;;;16.82;55.34
15314;BME280;7757;52.626;4.746;2023-04-07T13:06:45;101703.31;;;16.93;54.69
15314;BME280;7757;52.626;4.746;2023-04-07T13:09:30;101700.63;;;17.00;54.64
15314;BME280;7757;52.626;4.746;2023-04-07T13:12:17;101706.88;;;17.00;54.41
15314;BME280;7757;52.626;4.746;2023-04-07T13:15:03;101711.63;;;16.98;54.85
15314;BME280;7757;52.626;4.746;2023-04-07T13:17:48;101712.47;;;16.92;55.03
15314;BME280;7757;52.626;4.746;2023-04-07T13:20:34;101715.59;;;16.83;54.60
15314;BME280;7757;52.626;4.746;2023-04-07T13:23:19;101712.03;;;16.82;55.11
15314;BME280;7757;52.626;4.746;2023-04-07T13:26:04;101722.19;;;16.80;55.52
15314;BME280;7757;52.626;4.746;2023-04-07T13:28:51;101716.81;;;16.80;55.58
15314;BME280;7757;52.626;4.746;2023-04-07T13:31:37;101713.69;;;16.83;54.83
15314;BME280;7757;52.626;4.746;2023-04-07T13:34:22;101718.28;;;16.83;54.79
15314;BME280;7757;52.626;4.746;2023-04-07T13:37:07;101724.09;;;16.80;55.13
15314;BME280;7757;52.626;4.746;2023-04-07T13:39:52;101728.22;;;16.76;55.56
15314;BME280;7757;52.626;4.746;2023-04-07T13:42:38;101728.41;;;16.74;55.69
15314;BME280;7757;52.626;4.746;2023-04-07T13:45:25;101721.78;;;16.70;54.96
15314;BME280;7757;52.626;4.746;2023-04-07T13:48:10;101715.13;;;16.66;54.97
15314;BME280;7757;52.626;4.746;2023-04-07T13:50:56;101733.47;;;16.90;55.21
15314;BME280;7757;52.626;4.746;2023-04-07T13:53:41;101727.44;;;16.88;54.47
15314;BME280;7757;52.626;4.746;2023-04-07T13:56:27;101737.59;;;16.86;54.64
15314;BME280;7757;52.626;4.746;2023-04-07T13:59:12;101743.00;;;16.80;55.46
15314;BME280;7757;52.626;4.746;2023-04-07T14:01:59;101736.34;;;16.82;54.98
15314;BME280;7757;52.626;4.746;2023-04-07T14:04:45;101743.00;;;16.80;55.36
15314;BME280;7757;52.626;4.746;2023-04-07T14:07:30;101740.28;;;16.73;55.80
15314;BME280;7757;52.626;4.746;2023-04-07T14:10:16;101735.91;;;16.72;56.11
15314;BME280;7757;52.626;4.746;2023-04-07T14:13:01;101744.03;;;16.79;55.55
15314;BME280;7757;52.626;4.746;2023-04-07T14:15:46;101731.56;;;16.78;55.96
15314;BME280;7757;52.626;4.746;2023-04-07T14:18:33;101746.09;;;16.83;55.42
15314;BME280;7757;52.626;4.746;2023-04-07T14:21:19;101746.31;;;16.75;55.36
15314;BME280;7757;52.626;4.746;2023-04-07T14:24:05;101744.00;;;16.72;56.16
15314;BME280;7757;52.626;4.746;2023-04-07T14:26:50;101740.47;;;16.65;56.33
15314;BME280;7757;52.626;4.746;2023-04-07T14:29:37;101744.41;;;16.69;56.07
15314;BME280;7757;52.626;4.746;2023-04-07T14:32:22;101753.97;;;16.71;55.67
15314;BME280;7757;52.626;4.746;2023-04-07T14:35:09;101762.28;;;16.63;56.40
15314;BME280;7757;52.626;4.746;2023-04-07T14:37:54;101756.88;;;16.63;56.34
15314;BME280;7757;52.626;4.746;2023-04-07T14:40:40;101759.34;;;16.58;56.59
15314;BME280;7757;52.626;4.746;2023-04-07T14:43:25;101755.56;;;16.53;56.00
15314;BME280;7757;52.626;4.746;2023-04-07T14:46:11;101755.56;;;16.53;56.15